createdAt,value
2018-04-30T00:00:55.856Z,2.60
2018-04-30T00:03:23.442Z,2.83
2018-04-30T00:05:51.869Z,2.20
2018-04-30T00:08:19.495Z,1.90
2018-04-30T00:10:47.135Z,2.28
2018-04-30T00:13:14.735Z,2.12
2018-04-30T00:15:42.361Z,2.25
2018-04-30T00:18:09.982Z,2.15
2018-04-30T00:20:37.561Z,2.03
2018-04-30T00:23:05.180Z,1.55
2018-04-30T00:25:32.954Z,1.60
2018-04-30T00:28:01.363Z,1.58
2018-04-30T00:30:28.962Z,1.35
2018-04-30T00:32:57.422Z,1.75
2018-04-30T00:35:25.028Z,1.60
2018-04-30T00:37:52.610Z,1.48
2018-04-30T00:40:20.241Z,1.40
2018-04-30T00:42:48.605Z,1.30
2018-04-30T00:45:16.987Z,1.58
2018-04-30T00:47:45.380Z,1.23
2018-04-30T00:50:12.969Z,1.25
2018-04-30T00:52:40.557Z,1.55
2018-04-30T00:55:08.173Z,1.67
2018-04-30T00:57:35.804Z,1.58
2018-04-30T01:00:03.423Z,1.33
2018-04-30T01:02:31.048Z,1.75
2018-04-30T01:04:58.674Z,1.33
2018-04-30T01:07:26.273Z,1.25
2018-04-30T01:09:57.071Z,1.37
2018-04-30T01:12:26.778Z,1.40
2018-04-30T01:14:56.702Z,1.40
2018-04-30T01:17:27.340Z,1.00
2018-04-30T01:19:59.004Z,1.40
2018-04-30T01:22:29.670Z,1.15
2018-04-30T01:25:00.635Z,1.33
2018-04-30T01:27:30.371Z,1.33
2018-04-30T01:29:57.978Z,1.20
2018-04-30T01:32:25.620Z,1.35
2018-04-30T01:34:54.023Z,1.23
2018-04-30T01:37:21.647Z,1.25
2018-04-30T01:39:49.234Z,1.02
2018-04-30T01:42:16.889Z,1.30
2018-04-30T01:44:45.222Z,1.10
2018-04-30T01:47:12.805Z,1.02
2018-04-30T01:49:40.492Z,1.30
2018-04-30T01:52:08.109Z,1.20
2018-04-30T01:54:35.722Z,1.37
2018-04-30T01:57:04.141Z,1.60
2018-04-30T01:59:31.781Z,1.30
2018-04-30T02:01:59.440Z,1.30
2018-04-30T02:04:27.064Z,1.00
2018-04-30T02:06:54.694Z,1.12
2018-04-30T02:09:22.281Z,1.00
2018-04-30T02:11:49.893Z,1.05
2018-04-30T02:14:17.604Z,1.05
2018-04-30T02:16:45.196Z,1.10
2018-04-30T02:19:12.857Z,1.00
2018-04-30T02:21:41.249Z,0.90
2018-04-30T02:24:08.843Z,1.42
2018-04-30T02:26:36.477Z,1.35
2018-04-30T02:29:04.057Z,1.30
2018-04-30T02:31:31.646Z,1.20
2018-04-30T02:33:59.257Z,0.90
2018-04-30T02:36:26.911Z,1.08
2018-04-30T02:38:54.556Z,1.00
2018-04-30T02:41:22.919Z,1.15
2018-04-30T02:43:50.537Z,1.00
2018-04-30T02:46:18.304Z,1.00
2018-04-30T02:48:45.907Z,1.00
2018-04-30T02:51:13.551Z,0.80
2018-04-30T02:53:41.171Z,1.35
2018-04-30T02:56:08.793Z,1.00
2018-04-30T02:58:36.421Z,1.12
2018-04-30T03:01:04.041Z,1.23
2018-04-30T03:03:31.781Z,1.60
2018-04-30T03:05:59.416Z,1.00
2018-04-30T03:08:27.009Z,1.10
2018-04-30T03:10:54.626Z,1.30
2018-04-30T03:13:22.262Z,1.10
2018-04-30T03:15:49.855Z,1.00
2018-04-30T03:18:17.479Z,1.35
2018-04-30T03:20:45.134Z,1.23
2018-04-30T03:23:12.750Z,0.90
2018-04-30T03:25:40.373Z,1.10
2018-04-30T03:28:08.002Z,0.80
2018-04-30T03:30:35.667Z,1.00
2018-04-30T03:33:03.278Z,0.95
2018-04-30T03:35:30.863Z,1.00
2018-04-30T03:37:58.482Z,1.00
2018-04-30T03:40:26.093Z,1.42
2018-04-30T03:42:53.747Z,1.10
2018-04-30T03:45:21.331Z,1.15
2018-04-30T03:47:48.962Z,1.40
2018-04-30T03:50:16.603Z,1.20
2018-04-30T03:52:44.260Z,1.20
2018-04-30T03:55:11.887Z,1.10
2018-04-30T03:57:40.294Z,1.37
2018-04-30T04:03:13.818Z,1.55
2018-04-30T04:05:53.429Z,1.00
2018-04-30T04:08:21.018Z,1.15
2018-04-30T04:10:48.630Z,1.10
2018-04-30T04:13:16.193Z,1.15
2018-04-30T04:15:44.570Z,1.08
2018-04-30T04:18:12.947Z,1.10
2018-04-30T04:20:40.521Z,1.80
2018-04-30T04:23:08.913Z,1.20
2018-04-30T04:25:36.541Z,1.00
2018-04-30T04:28:04.202Z,1.27
2018-04-30T04:30:31.813Z,1.55
2018-04-30T04:32:59.437Z,1.40
2018-04-30T04:35:27.797Z,1.55
2018-04-30T04:37:55.417Z,1.37
2018-04-30T04:40:23.002Z,1.10
2018-04-30T04:42:50.627Z,1.60
2018-04-30T04:45:18.227Z,1.20
2018-04-30T04:47:45.913Z,1.25
2018-04-30T04:50:13.511Z,1.30
2018-04-30T04:52:41.149Z,1.30
2018-04-30T04:55:08.760Z,1.40
2018-04-30T04:57:36.372Z,1.27
2018-04-30T05:00:03.978Z,1.67
2018-04-30T05:02:31.609Z,1.62
2018-04-30T05:04:59.992Z,1.40
2018-04-30T05:07:28.387Z,1.55
2018-04-30T05:09:55.977Z,1.15
2018-04-30T05:12:23.666Z,1.30
2018-04-30T05:14:51.297Z,1.83
2018-04-30T05:17:18.922Z,1.55
2018-04-30T05:19:47.267Z,1.90
2018-04-30T05:22:14.894Z,1.30
2018-04-30T05:24:42.493Z,1.48
2018-04-30T05:27:10.081Z,1.23
2018-04-30T05:29:37.708Z,1.60
2018-04-30T05:32:05.347Z,1.35
2018-04-30T05:34:32.920Z,1.20
2018-04-30T05:37:00.506Z,2.00
2018-04-30T05:39:28.181Z,1.20
2018-04-30T05:41:56.574Z,1.62
2018-04-30T05:44:25.051Z,1.50
2018-04-30T05:46:53.449Z,1.40
2018-04-30T05:49:21.858Z,1.60
2018-04-30T05:51:49.571Z,1.20
2018-04-30T05:54:17.183Z,1.25
2018-04-30T05:56:44.789Z,1.20
2018-04-30T05:59:12.420Z,1.40
2018-04-30T06:01:40.115Z,1.20
2018-04-30T06:04:07.749Z,1.95
2018-04-30T06:06:35.384Z,1.10
2018-04-30T06:09:03.004Z,1.05
2018-04-30T06:11:30.595Z,1.27
2018-04-30T06:13:58.261Z,1.10
2018-04-30T06:16:25.846Z,1.00
2018-04-30T06:18:53.498Z,1.20
2018-04-30T06:21:21.134Z,1.02
2018-04-30T06:23:48.765Z,1.10
2018-04-30T06:26:16.382Z,1.23
2018-04-30T06:28:44.002Z,1.20
2018-04-30T06:31:11.639Z,1.02
2018-04-30T06:33:48.825Z,1.17
2018-04-30T06:36:16.440Z,1.50
2018-04-30T06:38:44.813Z,1.37
2018-04-30T06:41:13.198Z,1.10
2018-04-30T06:43:40.867Z,1.10
2018-04-30T06:46:08.494Z,1.33
2018-04-30T06:48:36.118Z,1.65
2018-04-30T06:51:03.784Z,1.00
2018-04-30T06:53:31.435Z,1.30
2018-04-30T06:55:59.735Z,1.52
2018-04-30T06:58:27.367Z,0.90
2018-04-30T07:00:54.948Z,1.00
2018-04-30T07:03:22.734Z,1.25
2018-04-30T07:05:51.271Z,1.30
2018-04-30T07:08:18.918Z,1.17
2018-04-30T07:10:46.505Z,1.95
2018-04-30T07:13:14.145Z,0.98
2018-04-30T07:15:41.799Z,1.05
2018-04-30T07:18:09.446Z,1.00
2018-04-30T07:20:37.104Z,1.30
2018-04-30T07:23:04.969Z,1.10
2018-04-30T07:25:33.348Z,1.35
2018-04-30T07:28:00.965Z,1.10
2018-04-30T07:30:28.532Z,1.40
2018-04-30T07:32:56.178Z,1.20
2018-04-30T07:35:23.769Z,1.10
2018-04-30T07:37:51.409Z,0.88
2018-04-30T07:40:19.021Z,1.33
2018-04-30T07:42:46.698Z,1.10
2018-04-30T07:45:14.319Z,1.10
2018-04-30T07:47:41.918Z,1.10
2018-04-30T07:50:09.506Z,1.58
2018-04-30T07:52:37.127Z,1.12
2018-04-30T07:55:04.742Z,1.00
2018-04-30T07:57:32.363Z,1.00
2018-04-30T07:59:59.976Z,1.10
2018-04-30T08:02:27.625Z,1.05
2018-04-30T08:04:55.267Z,1.08
2018-04-30T08:07:22.982Z,1.30
2018-04-30T08:09:50.613Z,1.00
2018-04-30T08:12:18.194Z,1.10
2018-04-30T08:14:45.886Z,1.08
2018-04-30T08:17:13.465Z,1.10
2018-04-30T08:19:41.078Z,1.42
2018-04-30T08:22:08.718Z,1.40
2018-04-30T08:24:36.331Z,1.10
2018-04-30T08:27:04.118Z,1.10
2018-04-30T08:29:32.495Z,1.15
2018-04-30T08:32:00.172Z,1.12
2018-04-30T08:34:27.933Z,1.33
2018-04-30T08:36:55.554Z,1.27
2018-04-30T08:39:23.260Z,1.15
2018-04-30T08:41:51.645Z,0.93
2018-04-30T08:44:20.056Z,1.15
2018-04-30T08:46:47.637Z,1.00
2018-04-30T08:49:15.272Z,1.20
2018-04-30T08:51:43.053Z,1.40
2018-04-30T08:54:10.628Z,1.65
2018-04-30T08:56:38.314Z,1.30
2018-04-30T08:59:05.953Z,1.65
2018-04-30T09:01:33.670Z,1.27
2018-04-30T09:04:01.305Z,1.27
2018-04-30T09:06:28.911Z,1.23
2018-04-30T09:08:56.552Z,1.30
2018-04-30T09:11:24.906Z,0.90
2018-04-30T09:13:52.554Z,0.85
2018-04-30T09:16:20.208Z,1.05
2018-04-30T09:18:47.888Z,0.90
2018-04-30T09:21:15.530Z,1.10
2018-04-30T09:23:43.112Z,1.10
2018-04-30T09:26:10.763Z,1.35
2018-04-30T09:28:38.415Z,1.02
2018-04-30T09:31:06.028Z,1.20
2018-04-30T09:33:34.499Z,0.73
2018-04-30T09:36:03.010Z,1.08
2018-04-30T09:38:30.674Z,1.10
2018-04-30T09:40:58.391Z,1.30
2018-04-30T09:43:26.085Z,1.10
2018-04-30T09:45:53.701Z,0.93
2018-04-30T09:48:21.338Z,0.88
2018-04-30T09:50:48.989Z,1.05
2018-04-30T09:53:16.585Z,1.08
2018-04-30T09:55:44.217Z,0.90
2018-04-30T09:58:11.823Z,1.00
2018-04-30T10:00:39.473Z,1.67
2018-04-30T10:03:07.051Z,0.80
2018-04-30T10:05:34.692Z,1.10
2018-04-30T10:08:02.294Z,0.70
2018-04-30T10:10:29.953Z,1.45
2018-04-30T10:12:57.583Z,0.70
2018-04-30T10:15:25.181Z,0.88
2018-04-30T10:17:52.904Z,0.80
2018-04-30T10:20:20.506Z,0.70
2018-04-30T10:22:48.141Z,0.98
2018-04-30T10:25:15.769Z,0.90
2018-04-30T10:27:44.177Z,0.90
2018-04-30T10:30:11.755Z,1.30
2018-04-30T10:32:39.430Z,0.90
2018-04-30T10:35:07.793Z,0.80
2018-04-30T10:37:35.407Z,0.83
2018-04-30T10:40:03.050Z,0.90
2018-04-30T10:42:30.672Z,0.90
2018-04-30T10:44:58.306Z,0.87
2018-04-30T10:47:25.890Z,1.00
2018-04-30T10:49:53.502Z,1.10
2018-04-30T10:52:21.881Z,0.93
2018-04-30T10:54:50.544Z,1.07
2018-04-30T10:57:18.652Z,0.93
2018-04-30T10:59:53.040Z,1.10
2018-04-30T11:02:21.235Z,0.90
2018-04-30T11:04:49.066Z,1.20
2018-04-30T11:07:16.681Z,1.30
2018-04-30T11:09:44.263Z,1.20
2018-04-30T11:12:12.119Z,1.00
2018-04-30T11:14:39.905Z,0.97
2018-04-30T11:17:07.686Z,0.90
2018-04-30T11:19:51.772Z,1.40
2018-04-30T11:22:21.231Z,1.00
2018-04-30T11:24:48.858Z,0.80
2018-04-30T11:27:16.491Z,1.30
2018-04-30T11:29:45.041Z,1.10
2018-04-30T11:32:12.705Z,1.00
2018-04-30T11:34:40.385Z,1.10
2018-04-30T11:37:08.947Z,1.00
2018-04-30T11:39:37.943Z,1.10
2018-04-30T11:42:06.957Z,0.80
2018-04-30T11:44:36.234Z,1.00
2018-04-30T11:47:05.497Z,1.00
2018-04-30T11:49:35.851Z,1.03
2018-04-30T11:52:03.457Z,0.90
2018-04-30T11:54:31.889Z,0.97
2018-04-30T11:56:59.479Z,1.10
2018-04-30T11:59:27.108Z,0.87
2018-04-30T12:01:54.750Z,1.00
2018-04-30T12:04:22.377Z,0.80
2018-04-30T12:06:50.027Z,3.03
2018-04-30T12:09:17.625Z,1.00
2018-04-30T12:11:46.232Z,1.03
2018-04-30T12:14:13.910Z,1.27
2018-04-30T12:16:41.590Z,1.37
2018-04-30T12:19:09.933Z,1.00
2018-04-30T12:21:37.526Z,1.10
2018-04-30T12:24:05.165Z,1.00
2018-04-30T12:26:32.761Z,1.07
2018-04-30T12:29:00.403Z,1.30
2018-04-30T12:31:28.077Z,0.80
2018-04-30T12:33:55.685Z,0.97
2018-04-30T12:36:24.076Z,0.90
2018-04-30T12:38:52.441Z,0.80
2018-04-30T12:41:20.831Z,0.97
2018-04-30T12:43:48.527Z,1.13
2018-04-30T12:46:16.154Z,1.20
2018-04-30T12:48:44.571Z,1.00
2018-04-30T12:51:12.184Z,1.23
2018-04-30T12:53:39.844Z,1.20
2018-04-30T12:56:07.429Z,1.20
2018-04-30T12:58:35.073Z,0.77
2018-04-30T13:01:02.722Z,0.90
2018-04-30T13:03:30.330Z,0.70
2018-04-30T13:05:57.946Z,1.05
2018-04-30T13:08:25.614Z,1.60
2018-04-30T13:10:53.402Z,0.93
2018-04-30T13:13:21.764Z,1.20
2018-04-30T13:15:49.435Z,1.20
2018-04-30T13:18:17.800Z,1.03
2018-04-30T13:20:45.439Z,0.90
2018-04-30T13:23:13.113Z,1.00
2018-04-30T13:25:40.781Z,0.77
2018-04-30T13:28:08.421Z,0.80
2018-04-30T13:30:36.002Z,1.13
2018-04-30T13:33:03.621Z,1.20
2018-04-30T13:35:31.221Z,1.13
2018-04-30T13:37:58.832Z,1.10
2018-04-30T13:40:27.193Z,0.90
2018-04-30T13:42:54.811Z,1.20
2018-04-30T13:45:22.413Z,0.87
2018-04-30T13:47:49.988Z,1.10
2018-04-30T13:50:18.378Z,0.90
2018-04-30T13:52:46.828Z,1.17
2018-04-30T13:55:14.425Z,1.07
2018-04-30T13:57:41.998Z,1.07
2018-04-30T14:00:09.646Z,0.83
2018-04-30T14:02:38.040Z,1.50
2018-04-30T14:05:05.629Z,1.00
2018-04-30T14:07:34.036Z,1.10
2018-04-30T14:10:01.686Z,1.20
2018-04-30T14:12:30.114Z,1.00
2018-04-30T14:14:58.539Z,1.20
2018-04-30T14:17:26.193Z,1.30
2018-04-30T14:19:54.065Z,0.80
2018-04-30T14:22:22.865Z,0.80
2018-04-30T14:24:50.469Z,1.30
2018-04-30T14:27:18.100Z,1.13
2018-04-30T14:29:45.695Z,0.93
2018-04-30T14:32:14.082Z,1.40
2018-04-30T14:34:41.654Z,0.95
2018-04-30T14:37:09.307Z,1.23
2018-04-30T14:39:36.909Z,1.00
2018-04-30T14:42:04.527Z,1.80
2018-04-30T14:44:32.911Z,1.00
2018-04-30T14:47:00.574Z,0.93
2018-04-30T14:49:28.222Z,0.82
2018-04-30T14:51:55.873Z,1.55
2018-04-30T14:54:23.527Z,1.58
2018-04-30T14:56:51.250Z,0.90
2018-04-30T14:59:18.852Z,0.70
2018-04-30T15:01:46.513Z,1.02
2018-04-30T15:04:14.146Z,1.23
2018-04-30T15:06:41.816Z,1.08
2018-04-30T15:09:09.456Z,1.37
2018-04-30T15:11:37.034Z,1.00
2018-04-30T15:14:04.868Z,1.00
2018-04-30T15:16:32.489Z,1.10
2018-04-30T15:19:00.102Z,1.10
2018-04-30T15:21:28.529Z,1.75
2018-04-30T15:23:56.919Z,1.25
2018-04-30T15:26:24.557Z,0.98
2018-04-30T15:28:52.207Z,0.90
2018-04-30T15:31:19.786Z,0.90
2018-04-30T15:33:47.515Z,1.10
2018-04-30T15:36:15.209Z,0.93
2018-04-30T15:38:42.833Z,1.00
2018-04-30T15:41:10.529Z,1.45
2018-04-30T15:43:38.206Z,1.12
2018-04-30T15:46:05.804Z,1.15
2018-04-30T15:48:33.457Z,1.30
2018-04-30T15:51:01.042Z,1.30
2018-04-30T15:53:28.689Z,1.45
2018-04-30T15:55:57.042Z,1.95
2018-04-30T15:58:24.634Z,1.35
2018-04-30T16:00:52.323Z,1.00
2018-04-30T16:03:19.909Z,1.02
2018-04-30T16:05:47.553Z,0.93
2018-04-30T16:08:15.166Z,1.20
2018-04-30T16:10:42.796Z,1.20
2018-04-30T16:13:10.448Z,1.10
2018-04-30T16:15:38.121Z,1.50
2018-04-30T16:18:05.704Z,1.42
2018-04-30T16:20:33.344Z,1.10
2018-04-30T16:23:00.955Z,1.55
2018-04-30T16:25:29.373Z,1.23
2018-04-30T16:27:56.995Z,1.65
2018-04-30T16:30:25.372Z,1.15
2018-04-30T16:32:53.761Z,1.08
2018-04-30T16:35:21.374Z,1.25
2018-04-30T16:37:49.041Z,1.30
2018-04-30T16:40:16.684Z,1.05
2018-04-30T16:42:44.309Z,1.30
2018-04-30T16:45:12.730Z,0.90
2018-04-30T16:47:40.347Z,0.95
2018-04-30T16:50:08.767Z,1.15
2018-04-30T16:52:36.379Z,0.80
2018-04-30T16:55:04.056Z,0.90
2018-04-30T16:57:32.489Z,1.40
2018-04-30T17:00:00.113Z,1.15
2018-04-30T17:02:27.757Z,0.95
2018-04-30T17:04:56.149Z,1.30
2018-04-30T17:07:23.832Z,1.45
2018-04-30T17:09:51.464Z,1.40
2018-04-30T17:12:19.835Z,1.52
2018-04-30T17:14:48.284Z,1.92
2018-04-30T17:17:15.873Z,1.37
2018-04-30T17:19:43.457Z,1.08
2018-04-30T17:22:11.856Z,1.20
2018-04-30T17:24:39.461Z,2.03
2018-04-30T17:27:07.103Z,1.40
2018-04-30T17:29:34.867Z,1.95
2018-04-30T17:32:02.493Z,1.23
2018-04-30T17:34:30.951Z,1.40
2018-04-30T17:36:58.549Z,1.45
2018-04-30T17:39:26.142Z,1.30
2018-04-30T17:41:53.758Z,1.23
2018-04-30T17:44:22.164Z,1.25
2018-04-30T17:46:49.804Z,1.15
2018-04-30T17:49:17.479Z,1.50
2018-04-30T17:51:45.104Z,1.40
2018-04-30T17:54:12.694Z,1.10
2018-04-30T17:56:41.110Z,1.40
2018-04-30T17:59:08.715Z,1.17
2018-04-30T18:01:36.340Z,1.40
2018-04-30T18:04:03.945Z,1.08
2018-04-30T18:06:32.363Z,1.45
2018-04-30T18:08:59.997Z,1.20
2018-04-30T18:11:28.377Z,1.20
2018-04-30T18:13:56.773Z,1.37
2018-04-30T18:16:24.421Z,0.82
2018-04-30T18:18:52.796Z,1.30
2018-04-30T18:21:21.148Z,1.00
2018-04-30T18:23:48.784Z,1.45
2018-04-30T18:26:16.364Z,1.08
2018-04-30T18:28:43.990Z,0.98
2018-04-30T18:31:11.621Z,1.40
2018-04-30T18:33:40.031Z,1.20
2018-04-30T18:36:07.614Z,1.70
2018-04-30T18:38:35.250Z,1.35
2018-04-30T18:41:02.880Z,1.70
2018-04-30T18:43:31.285Z,1.40
2018-04-30T18:45:58.961Z,2.95
2018-04-30T18:48:26.576Z,1.20
2018-04-30T18:50:54.235Z,1.40
2018-04-30T18:53:21.801Z,1.50
2018-04-30T18:55:49.439Z,2.70
2018-04-30T18:58:17.090Z,2.08
2018-04-30T19:00:44.695Z,2.40
2018-04-30T19:03:13.133Z,1.92
2018-04-30T19:05:40.720Z,1.30
2018-04-30T19:08:08.419Z,1.52
2018-04-30T19:10:36.763Z,1.73
2018-04-30T19:13:04.340Z,1.95
2018-04-30T19:15:32.751Z,2.22
2018-04-30T19:18:00.324Z,1.30
2018-04-30T19:20:27.905Z,1.62
2018-04-30T19:22:55.546Z,1.60
2018-04-30T19:25:23.151Z,1.45
2018-04-30T19:27:50.778Z,1.62
2018-04-30T19:30:18.385Z,1.48
2018-04-30T19:32:45.993Z,1.20
2018-04-30T19:35:13.624Z,1.48
2018-04-30T19:37:42.019Z,1.58
2018-04-30T19:40:10.429Z,1.62
2018-04-30T19:42:38.786Z,1.62
2018-04-30T19:45:06.454Z,2.03
2018-04-30T19:47:34.253Z,2.78
2018-04-30T19:50:01.879Z,2.35
2018-04-30T19:52:29.614Z,3.20
2018-04-30T19:54:57.176Z,2.62
2018-04-30T19:57:24.794Z,5.18
2018-04-30T19:59:52.365Z,6.00
2018-04-30T20:02:22.314Z,3.47
2018-04-30T20:04:50.916Z,2.67
2018-04-30T20:07:19.315Z,1.90
2018-04-30T20:09:46.949Z,1.55
2018-04-30T20:12:15.349Z,2.00
2018-04-30T20:14:43.745Z,2.80
2018-04-30T20:17:11.388Z,2.60
2018-04-30T20:19:39.051Z,1.92
2018-04-30T20:22:07.501Z,1.60
2018-04-30T20:24:35.179Z,1.87
2018-04-30T20:27:03.575Z,1.75
2018-04-30T20:29:31.913Z,1.60
2018-04-30T20:31:59.559Z,1.60
2018-04-30T20:34:27.172Z,1.60
2018-04-30T20:36:55.513Z,1.80
2018-04-30T20:39:23.118Z,1.45
2018-04-30T20:41:51.448Z,1.62
2018-04-30T20:44:19.104Z,1.42
2018-04-30T20:46:46.718Z,1.42
2018-04-30T20:49:15.064Z,1.50
2018-04-30T20:51:42.656Z,1.70
2018-04-30T20:54:11.074Z,1.33
2018-04-30T20:56:38.698Z,1.90
2018-04-30T20:59:07.066Z,1.70
2018-04-30T21:01:34.687Z,2.00
2018-04-30T21:04:02.358Z,2.10
2018-04-30T21:06:30.040Z,1.65
2018-04-30T21:09:14.447Z,2.08
2018-04-30T21:11:42.002Z,1.80
2018-04-30T21:14:09.580Z,1.40
2018-04-30T21:16:37.258Z,1.70
2018-04-30T21:19:04.866Z,1.52
2018-04-30T21:21:33.271Z,1.75
2018-04-30T21:24:00.906Z,1.80
2018-04-30T21:26:29.282Z,1.50
2018-04-30T21:28:56.899Z,1.75
2018-04-30T21:31:24.537Z,1.83
2018-04-30T21:33:52.133Z,1.80
2018-04-30T21:36:19.729Z,1.80
2018-04-30T21:38:47.336Z,1.30
2018-04-30T21:41:14.979Z,1.35
2018-04-30T21:43:43.419Z,1.40
2018-04-30T21:46:11.088Z,1.60
2018-04-30T21:48:38.682Z,1.35
2018-04-30T21:51:06.304Z,1.50
2018-04-30T21:53:33.951Z,1.50
2018-04-30T21:56:01.555Z,2.20
2018-04-30T21:58:29.947Z,2.03
2018-04-30T22:00:57.584Z,2.00
2018-04-30T22:03:26.009Z,1.75
2018-04-30T22:05:53.585Z,2.03
2018-04-30T22:08:21.170Z,1.80
2018-04-30T22:10:48.809Z,2.28
2018-04-30T22:13:16.399Z,2.45
2018-04-30T22:15:44.035Z,2.50
2018-04-30T22:18:11.616Z,2.30
2018-04-30T22:20:39.256Z,2.75
2018-04-30T22:23:06.906Z,2.72
2018-04-30T22:25:34.490Z,3.08
2018-04-30T22:28:02.095Z,2.80
2018-04-30T22:30:30.506Z,2.37
2018-04-30T22:32:58.107Z,3.05
2018-04-30T22:35:25.705Z,3.00
2018-04-30T22:37:54.085Z,2.90
2018-04-30T22:40:22.483Z,2.42
2018-04-30T22:42:50.094Z,3.08
2018-04-30T22:45:17.753Z,2.78
2018-04-30T22:47:45.343Z,2.80
2018-04-30T22:50:12.967Z,3.33
2018-04-30T22:52:40.561Z,3.10
2018-04-30T22:55:08.214Z,3.45
2018-04-30T22:57:35.866Z,3.20
2018-04-30T23:00:03.484Z,3.10
2018-04-30T23:02:31.064Z,3.10
2018-04-30T23:04:58.728Z,2.20
2018-04-30T23:07:26.338Z,1.87
2018-04-30T23:09:54.732Z,1.35
2018-04-30T23:12:23.070Z,1.95
2018-04-30T23:14:50.670Z,1.50
2018-04-30T23:17:18.303Z,1.80
2018-04-30T23:19:45.893Z,1.40
2018-04-30T23:22:15.294Z,1.60
2018-04-30T23:24:43.641Z,1.40
2018-04-30T23:27:11.264Z,1.60
2018-04-30T23:29:38.862Z,1.60
2018-04-30T23:32:06.479Z,1.80
2018-04-30T23:34:34.068Z,1.30
2018-04-30T23:37:01.763Z,1.20
2018-04-30T23:39:29.286Z,1.10
2018-04-30T23:41:56.946Z,1.40
2018-04-30T23:44:24.543Z,1.02
2018-04-30T23:46:52.159Z,1.00
2018-04-30T23:49:19.818Z,1.00
2018-04-30T23:51:47.401Z,1.00
2018-04-30T23:54:15.043Z,1.10
2018-04-30T23:56:42.621Z,1.00
2018-04-30T23:59:10.236Z,0.98
